createdAt,value
2022-08-14T00:02:31.334Z,10.30
2022-08-14T00:05:01.571Z,8.63
2022-08-14T00:07:29.975Z,9.50
2022-08-14T00:10:49.318Z,8.90
2022-08-14T00:12:56.791Z,10.10
2022-08-14T00:15:29.701Z,8.80
2022-08-14T00:17:58.915Z,9.97
2022-08-14T00:20:41.294Z,9.23
2022-08-14T00:23:17.367Z,9.80
2022-08-14T00:25:53.706Z,8.20
2022-08-14T00:28:35.532Z,9.23
2022-08-14T00:31:05.075Z,9.40
2022-08-14T00:33:51.139Z,10.10
2022-08-14T00:36:35.326Z,9.03
2022-08-14T00:39:18.022Z,9.80
2022-08-14T00:41:47.962Z,9.53
2022-08-14T00:44:27.539Z,8.10
2022-08-14T00:47:02.487Z,9.63
2022-08-14T00:49:38.216Z,8.80
2022-08-14T00:52:13.848Z,8.80
2022-08-14T00:54:43.211Z,9.53
2022-08-14T00:57:12.037Z,9.90
2022-08-14T00:59:41.480Z,10.10
2022-08-14T01:02:10.661Z,9.80
2022-08-14T01:04:53.432Z,9.10
2022-08-14T01:07:24.802Z,9.67
2022-08-14T01:09:58.735Z,9.90
2022-08-14T01:12:29.775Z,8.90
2022-08-14T01:14:59.013Z,9.30
2022-08-14T01:17:50.818Z,11.90
2022-08-14T01:20:39.322Z,9.93
2022-08-14T01:23:16.072Z,10.03
2022-08-14T01:25:48.615Z,11.27
2022-08-14T01:28:46.857Z,9.57
2022-08-14T01:31:08.615Z,10.13
2022-08-14T01:35:16.619Z,10.03
2022-08-14T01:36:37.284Z,10.00
2022-08-14T01:39:12.791Z,11.30
2022-08-14T01:41:43.252Z,10.97
2022-08-14T01:44:32.854Z,11.30
2022-08-14T01:47:11.793Z,10.80
2022-08-14T01:49:59.062Z,11.33
2022-08-14T01:52:34.505Z,10.63
2022-08-14T01:55:18.770Z,11.90
2022-08-14T01:58:00.872Z,11.67
2022-08-14T02:00:38.979Z,11.90
2022-08-14T02:03:08.850Z,12.40
2022-08-14T02:05:38.942Z,11.87
2022-08-14T02:08:08.921Z,11.67
2022-08-14T02:10:47.129Z,11.83
2022-08-14T02:13:19.125Z,12.70
2022-08-14T02:15:48.590Z,11.97
2022-08-14T02:18:18.185Z,12.87
2022-08-14T02:20:49.065Z,16.47
2022-08-14T02:23:23.848Z,13.30
2022-08-14T02:26:24.330Z,13.70
2022-08-14T02:28:59.593Z,14.00
2022-08-14T02:31:42.570Z,14.07
2022-08-14T02:34:22.593Z,13.50
2022-08-14T02:37:05.064Z,13.83
2022-08-14T02:39:37.225Z,12.30
2022-08-14T02:42:13.018Z,11.40
2022-08-14T02:44:48.802Z,10.70
2022-08-14T02:47:21.084Z,11.43
2022-08-14T02:49:54.959Z,11.13
2022-08-14T02:52:56.385Z,12.07
2022-08-14T02:55:19.743Z,10.37
2022-08-14T02:57:58.147Z,12.80
2022-08-14T03:00:39.773Z,10.53
2022-08-14T03:03:10.121Z,11.27
2022-08-14T03:05:41.094Z,10.73
2022-08-14T03:08:15.417Z,11.40
2022-08-14T03:10:48.693Z,11.23
2022-08-14T03:13:21.132Z,11.07
2022-08-14T03:15:56.324Z,11.07
2022-08-14T03:18:32.093Z,10.50
2022-08-14T03:21:02.797Z,11.20
2022-08-14T03:23:37.883Z,12.47
2022-08-14T03:26:13.049Z,11.33
2022-08-14T03:28:51.233Z,10.97
2022-08-14T03:31:26.103Z,11.37
2022-08-14T03:33:56.931Z,10.80
2022-08-14T03:37:37.303Z,11.83
2022-08-14T03:39:21.790Z,10.27
2022-08-14T03:41:52.443Z,11.40
2022-08-14T03:45:19.643Z,11.00
2022-08-14T03:47:12.251Z,11.20
2022-08-14T03:49:49.755Z,11.47
2022-08-14T03:52:38.794Z,11.97
2022-08-14T03:55:08.901Z,11.10
2022-08-14T03:57:38.058Z,12.53
2022-08-14T04:00:40.628Z,12.27
2022-08-14T04:03:02.444Z,12.20
2022-08-14T04:05:37.927Z,11.77
2022-08-14T04:08:23.030Z,9.80
2022-08-14T04:11:00.976Z,12.40
2022-08-14T04:13:32.026Z,12.40
2022-08-14T04:16:06.702Z,12.43
2022-08-14T04:18:35.948Z,12.67
2022-08-14T04:21:04.434Z,11.90
2022-08-14T04:23:34.514Z,12.13
2022-08-14T04:26:04.112Z,12.97
2022-08-14T04:29:08.308Z,10.93
2022-08-14T04:32:56.501Z,11.83
2022-08-14T04:34:20.777Z,11.40
2022-08-14T04:37:22.001Z,11.83
2022-08-14T04:40:08.545Z,12.60
2022-08-14T04:42:55.268Z,11.10
2022-08-14T04:45:24.460Z,12.50
2022-08-14T04:48:12.641Z,13.20
2022-08-14T04:50:44.467Z,13.07
2022-08-14T04:53:15.722Z,14.10
2022-08-14T04:55:49.812Z,13.20
2022-08-14T04:58:21.652Z,12.73
2022-08-14T05:00:57.185Z,13.47
2022-08-14T05:03:29.253Z,13.30
2022-08-14T05:06:00.908Z,13.97
2022-08-14T05:08:32.277Z,13.27
2022-08-14T05:11:20.104Z,13.53
2022-08-14T05:16:38.477Z,12.40
2022-08-14T05:19:17.997Z,12.97
2022-08-14T05:22:01.283Z,11.10
2022-08-14T05:24:44.866Z,12.07
2022-08-14T05:27:13.259Z,11.23
2022-08-14T05:29:44.855Z,11.20
2022-08-14T05:32:13.926Z,11.43
2022-08-14T05:34:45.603Z,11.50
2022-08-14T05:37:15.443Z,10.57
2022-08-14T05:39:44.414Z,9.90
2022-08-14T05:42:22.170Z,12.87
2022-08-14T05:44:57.454Z,10.00
2022-08-14T05:47:28.709Z,11.90
2022-08-14T05:49:59.816Z,10.70
2022-08-14T05:52:48.832Z,9.67
2022-08-14T05:55:16.699Z,10.97
2022-08-14T05:57:50.121Z,9.53
2022-08-14T06:00:28.238Z,10.60
2022-08-14T06:02:57.491Z,9.23
2022-08-14T06:05:29.133Z,9.30
2022-08-14T06:07:58.097Z,9.13
2022-08-14T06:10:27.014Z,9.20
2022-08-14T06:12:58.122Z,9.20
2022-08-14T06:15:30.469Z,9.60
2022-08-14T06:18:00.199Z,9.33
2022-08-14T06:20:31.087Z,8.83
2022-08-14T06:22:59.823Z,8.87
2022-08-14T06:25:28.766Z,12.10
2022-08-14T06:28:00.935Z,8.93
2022-08-14T06:30:45.665Z,9.43
2022-08-14T06:33:15.946Z,10.23
2022-08-14T06:35:49.896Z,12.90
2022-08-14T06:38:20.671Z,8.70
2022-08-14T06:40:53.318Z,8.60
2022-08-14T06:43:24.946Z,9.73
2022-08-14T06:45:57.131Z,10.10
2022-08-14T06:48:26.547Z,8.90
2022-08-14T06:50:57.929Z,9.90
2022-08-14T06:53:28.072Z,12.30
2022-08-14T06:56:00.822Z,9.07
2022-08-14T06:58:32.515Z,8.73
2022-08-14T07:01:25.005Z,9.60
2022-08-14T07:04:22.944Z,8.67
2022-08-14T07:06:59.143Z,8.97
2022-08-14T07:09:40.596Z,10.30
2022-08-14T07:12:55.083Z,7.07
2022-08-14T07:15:06.425Z,7.83
2022-08-14T07:17:36.430Z,9.00
2022-08-14T07:20:07.395Z,8.40
2022-08-14T07:22:56.517Z,9.73
2022-08-14T07:25:32.655Z,8.20
2022-08-14T07:28:01.817Z,8.50
2022-08-14T07:30:34.207Z,7.77
2022-08-14T07:33:03.777Z,7.57
2022-08-14T07:35:42.832Z,11.30
2022-08-14T07:38:20.455Z,7.97
2022-08-14T07:40:53.053Z,8.53
2022-08-14T07:43:22.997Z,7.90
2022-08-14T07:45:53.871Z,8.13
2022-08-14T07:48:24.848Z,8.00
2022-08-14T07:50:55.306Z,8.07
2022-08-14T07:53:36.589Z,8.00
2022-08-14T07:56:08.935Z,7.73
2022-08-14T07:58:51.843Z,7.33
2022-08-14T08:01:20.918Z,8.10
2022-08-14T08:03:57.310Z,8.33
2022-08-14T08:06:28.124Z,7.50
2022-08-14T08:09:02.893Z,7.73
2022-08-14T08:11:34.990Z,7.20
2022-08-14T08:14:10.783Z,8.60
2022-08-14T08:16:47.489Z,9.73
2022-08-14T08:19:19.845Z,7.07
2022-08-14T08:21:48.161Z,7.37
2022-08-14T08:24:18.555Z,8.00
2022-08-14T08:26:50.466Z,7.83
2022-08-14T08:29:28.973Z,7.47
2022-08-14T08:32:01.910Z,6.97
2022-08-14T08:34:46.116Z,6.67
2022-08-14T08:37:15.599Z,7.13
2022-08-14T08:40:02.829Z,6.80
2022-08-14T08:42:38.210Z,7.03
2022-08-14T08:45:11.814Z,7.13
2022-08-14T08:47:41.672Z,7.70
2022-08-14T08:50:23.072Z,6.93
2022-08-14T08:52:53.032Z,7.30
2022-08-14T08:55:30.653Z,7.10
2022-08-14T08:58:00.802Z,7.60
2022-08-14T09:00:34.002Z,7.27
2022-08-14T09:03:06.188Z,6.70
2022-08-14T09:05:36.613Z,6.27
2022-08-14T09:08:31.946Z,5.67
2022-08-14T09:11:18.958Z,6.83
2022-08-14T09:13:50.913Z,5.67
2022-08-14T09:16:23.605Z,5.90
2022-08-14T09:18:53.856Z,5.93
2022-08-14T09:21:24.114Z,5.40
2022-08-14T09:24:30.183Z,5.30
2022-08-14T09:26:48.858Z,5.33
2022-08-14T09:29:20.054Z,5.00
2022-08-14T09:31:57.626Z,5.20
2022-08-14T09:34:47.420Z,5.90
2022-08-14T09:37:36.569Z,5.67
2022-08-14T09:40:10.138Z,5.60
2022-08-14T09:42:59.329Z,6.10
2022-08-14T09:45:40.258Z,5.37
2022-08-14T09:48:30.196Z,6.00
2022-08-14T09:54:17.883Z,5.40
2022-08-14T09:56:31.775Z,5.70
2022-08-14T09:59:15.361Z,5.00
2022-08-14T10:01:46.243Z,5.23
2022-08-14T10:04:34.573Z,5.10
2022-08-14T10:07:05.324Z,4.50
2022-08-14T10:09:35.140Z,4.83
2022-08-14T10:12:04.806Z,5.30
2022-08-14T10:14:37.093Z,6.10
2022-08-14T10:17:08.459Z,5.17
2022-08-14T10:19:37.304Z,4.63
2022-08-14T10:23:22.114Z,6.27
2022-08-14T10:24:55.737Z,6.03
2022-08-14T10:27:26.738Z,5.50
2022-08-14T10:30:00.004Z,5.43
2022-08-14T10:32:40.380Z,5.77
2022-08-14T10:35:17.684Z,5.50
2022-08-14T10:37:52.096Z,6.83
2022-08-14T10:40:44.035Z,6.20
2022-08-14T10:43:23.052Z,5.33
2022-08-14T10:46:21.862Z,7.13
2022-08-14T10:48:58.294Z,5.80
2022-08-14T10:51:30.026Z,6.17
2022-08-14T10:54:01.973Z,5.50
2022-08-14T10:56:51.895Z,5.67
2022-08-14T10:59:22.354Z,5.60
2022-08-14T11:01:52.051Z,5.60
2022-08-14T11:04:30.841Z,6.10
2022-08-14T11:06:59.791Z,5.63
2022-08-14T11:09:31.511Z,5.77
2022-08-14T11:12:36.043Z,5.27
2022-08-14T11:14:59.558Z,4.93
2022-08-14T11:17:32.924Z,6.07
2022-08-14T11:20:03.499Z,5.50
2022-08-14T11:22:56.541Z,4.93
2022-08-14T11:25:23.819Z,5.77
2022-08-14T11:27:54.993Z,5.23
2022-08-14T11:30:50.848Z,6.07
2022-08-14T11:33:17.595Z,5.87
2022-08-14T11:35:49.822Z,5.87
2022-08-14T11:38:21.638Z,5.50
2022-08-14T11:40:50.106Z,5.67
2022-08-14T11:43:22.602Z,6.00
2022-08-14T11:45:57.778Z,5.70
2022-08-14T11:49:03.575Z,5.33
2022-08-14T11:51:24.096Z,5.60
2022-08-14T11:53:58.133Z,5.67
2022-08-14T11:56:29.728Z,5.90
2022-08-14T11:58:59.022Z,5.97
2022-08-14T12:01:28.960Z,5.90
2022-08-14T12:04:32.554Z,5.43
2022-08-14T12:06:59.015Z,5.63
2022-08-14T12:09:32.206Z,5.90
2022-08-14T12:12:01.083Z,5.83
2022-08-14T12:14:35.486Z,5.60
2022-08-14T12:17:12.868Z,6.27
2022-08-14T12:19:50.745Z,5.73
2022-08-14T12:22:29.765Z,5.50
2022-08-14T12:24:58.838Z,5.97
2022-08-14T12:27:41.740Z,5.13
2022-08-14T12:30:21.085Z,5.43
2022-08-14T12:32:49.881Z,5.73
2022-08-14T12:35:20.528Z,5.00
2022-08-14T12:37:50.752Z,5.30
2022-08-14T12:40:23.065Z,5.13
2022-08-14T12:42:56.495Z,5.10
2022-08-14T12:45:33.278Z,5.60
2022-08-14T12:48:21.526Z,5.23
2022-08-14T12:50:53.457Z,4.97
2022-08-14T12:53:22.422Z,5.67
2022-08-14T12:56:18.071Z,4.83
2022-08-14T12:58:51.918Z,5.57
2022-08-14T13:01:23.402Z,5.03
2022-08-14T13:03:52.748Z,5.27
2022-08-14T13:06:24.577Z,5.70
2022-08-14T13:09:00.341Z,5.70
2022-08-14T13:11:41.054Z,5.23
2022-08-14T13:14:10.174Z,5.43
2022-08-14T13:16:50.571Z,7.63
2022-08-14T13:19:20.041Z,5.10
2022-08-14T13:21:58.992Z,6.00
2022-08-14T13:24:35.310Z,5.10
2022-08-14T13:27:05.107Z,5.03
2022-08-14T13:29:38.374Z,5.57
2022-08-14T13:32:10.166Z,5.10
2022-08-14T13:34:40.750Z,5.30
2022-08-14T13:37:10.871Z,5.90
2022-08-14T13:39:56.732Z,5.47
2022-08-14T13:42:30.740Z,5.30
2022-08-14T13:45:01.366Z,5.47
2022-08-14T13:47:33.253Z,6.20
2022-08-14T13:50:04.675Z,5.47
2022-08-14T13:52:52.176Z,4.73
2022-08-14T13:55:23.759Z,4.77
2022-08-14T13:58:04.429Z,6.47
2022-08-14T14:00:35.777Z,5.40
2022-08-14T14:03:07.415Z,5.50
2022-08-14T14:05:52.268Z,5.50
2022-08-14T14:08:46.382Z,5.20
2022-08-14T14:11:15.646Z,7.87
2022-08-14T14:13:46.538Z,5.80
2022-08-14T14:16:22.060Z,5.50
2022-08-14T14:19:08.670Z,5.43
2022-08-14T14:21:40.587Z,5.67
2022-08-14T14:24:14.767Z,4.87
2022-08-14T14:26:46.458Z,6.63
2022-08-14T14:29:15.213Z,5.50
2022-08-14T14:31:49.336Z,4.93
2022-08-14T14:34:29.048Z,5.07
2022-08-14T14:37:04.937Z,5.03
2022-08-14T14:40:50.369Z,5.20
2022-08-14T14:42:31.692Z,5.30
2022-08-14T14:45:05.917Z,5.27
2022-08-14T14:47:35.236Z,4.87
2022-08-14T14:50:05.164Z,5.27
2022-08-14T14:52:36.954Z,5.00
2022-08-14T14:55:08.153Z,5.43
2022-08-14T14:57:36.955Z,4.90
2022-08-14T15:00:12.891Z,4.83
2022-08-14T15:02:43.160Z,5.00
2022-08-14T15:05:14.144Z,4.97
2022-08-14T15:07:42.733Z,4.83
2022-08-14T15:10:27.498Z,5.10
2022-08-14T15:13:04.272Z,4.40
2022-08-14T15:15:37.022Z,4.60
2022-08-14T15:18:35.903Z,5.70
2022-08-14T15:20:58.245Z,5.10
2022-08-14T15:23:43.507Z,5.13
2022-08-14T15:26:23.874Z,4.93
2022-08-14T15:29:03.052Z,5.00
2022-08-14T15:31:36.279Z,4.70
2022-08-14T15:34:43.729Z,4.57
2022-08-14T15:37:03.976Z,4.70
2022-08-14T15:39:34.115Z,5.10
2022-08-14T15:42:14.307Z,4.80
2022-08-14T15:44:57.375Z,5.83
2022-08-14T15:47:29.340Z,4.93
2022-08-14T15:49:59.441Z,4.10
2022-08-14T15:52:33.734Z,4.60
2022-08-14T15:55:05.843Z,4.53
2022-08-14T15:57:36.820Z,4.57
2022-08-14T16:00:43.340Z,4.27
2022-08-14T16:03:15.587Z,5.20
2022-08-14T16:05:46.162Z,4.33
2022-08-14T16:08:29.681Z,4.10
2022-08-14T16:10:59.674Z,4.70
2022-08-14T16:13:39.551Z,5.03
2022-08-14T16:16:51.082Z,5.30
2022-08-14T16:19:10.155Z,4.90
2022-08-14T16:22:02.720Z,5.27
2022-08-14T16:24:33.424Z,5.30
2022-08-14T16:27:05.293Z,6.60
2022-08-14T16:29:38.013Z,5.00
2022-08-14T16:32:32.957Z,5.70
2022-08-14T16:34:57.465Z,5.20
2022-08-14T16:37:30.511Z,5.57
2022-08-14T16:40:03.391Z,6.37
2022-08-14T16:42:38.655Z,5.10
2022-08-14T16:45:27.187Z,5.80
2022-08-14T16:47:56.220Z,5.53
2022-08-14T16:50:43.050Z,5.20
2022-08-14T16:53:17.717Z,4.77
2022-08-14T16:55:51.070Z,5.37
2022-08-14T16:58:26.545Z,5.37
2022-08-14T17:01:22.826Z,5.50
2022-08-14T17:03:59.755Z,5.23
2022-08-14T17:06:43.035Z,5.50
2022-08-14T17:09:43.467Z,5.03
2022-08-14T17:12:28.461Z,5.40
2022-08-14T17:15:03.396Z,5.10
2022-08-14T17:17:57.680Z,6.00
2022-08-14T17:20:39.780Z,5.70
2022-08-14T17:23:21.299Z,5.20
2022-08-14T17:25:58.480Z,5.50
2022-08-14T17:28:50.226Z,4.90
2022-08-14T17:31:15.714Z,6.03
2022-08-14T17:33:52.351Z,4.90
2022-08-14T17:36:23.055Z,5.43
2022-08-14T17:39:02.790Z,5.87
2022-08-14T17:41:37.980Z,5.20
2022-08-14T17:44:33.907Z,5.27
2022-08-14T17:47:10.772Z,5.10
2022-08-14T17:49:52.061Z,6.10
2022-08-14T17:52:34.414Z,6.97
2022-08-14T17:55:06.636Z,5.97
2022-08-14T17:57:40.847Z,5.20
2022-08-14T18:00:13.207Z,6.40
2022-08-14T18:02:50.730Z,6.87
2022-08-14T18:06:08.661Z,7.20
2022-08-14T18:08:32.889Z,7.57
2022-08-14T18:11:03.353Z,7.13
2022-08-14T18:13:51.033Z,6.80
2022-08-14T18:16:22.307Z,7.27
2022-08-14T18:18:52.247Z,6.60
2022-08-14T18:21:42.570Z,7.70
2022-08-14T18:24:28.137Z,8.63
2022-08-14T18:27:02.187Z,7.20
2022-08-14T18:29:32.220Z,7.27
2022-08-14T18:32:00.761Z,7.80
2022-08-14T18:34:37.615Z,7.13
2022-08-14T18:37:21.458Z,7.60
2022-08-14T18:39:51.728Z,7.43
2022-08-14T18:42:47.494Z,7.87
2022-08-14T18:45:18.601Z,7.23
2022-08-14T18:48:14.754Z,7.27
2022-08-14T18:50:52.652Z,8.00
2022-08-14T18:53:24.526Z,6.80
2022-08-14T18:55:59.945Z,7.67
2022-08-14T18:58:34.080Z,7.57
2022-08-14T19:01:04.463Z,7.07
2022-08-14T19:03:49.435Z,8.40
2022-08-14T19:06:18.536Z,8.30
2022-08-14T19:08:50.376Z,8.70
2022-08-14T19:11:51.671Z,7.53
2022-08-14T19:14:44.987Z,7.47
2022-08-14T19:17:41.750Z,8.60
2022-08-14T19:20:11.730Z,8.30
2022-08-14T19:22:40.782Z,7.40
2022-08-14T19:25:13.930Z,7.40
2022-08-14T19:27:45.990Z,7.50
2022-08-14T19:30:23.417Z,7.63
2022-08-14T19:32:55.896Z,7.80
2022-08-14T19:35:50.005Z,7.37
2022-08-14T19:38:48.025Z,7.60
2022-08-14T19:41:20.207Z,8.47
2022-08-14T19:43:56.902Z,7.03
2022-08-14T19:46:37.600Z,7.77
2022-08-14T19:49:08.744Z,9.77
2022-08-14T19:51:44.834Z,8.50
2022-08-14T19:54:15.341Z,8.07
2022-08-14T19:56:46.613Z,7.50
2022-08-14T19:59:18.995Z,7.27
2022-08-14T20:01:52.301Z,7.43
2022-08-14T20:04:45.995Z,8.07
2022-08-14T20:07:59.619Z,7.57
2022-08-14T20:11:05.637Z,7.83
2022-08-14T20:13:23.656Z,7.47
2022-08-14T20:15:57.881Z,8.60
2022-08-14T20:18:49.586Z,8.63
2022-08-14T20:21:17.155Z,7.27
2022-08-14T20:23:48.050Z,8.33
2022-08-14T20:26:31.641Z,7.97
2022-08-14T20:29:05.146Z,7.20
2022-08-14T20:31:38.530Z,8.47
2022-08-14T20:34:18.957Z,7.93
2022-08-14T20:37:02.970Z,8.27
2022-08-14T20:39:34.203Z,8.40
2022-08-14T20:42:29.287Z,7.87
2022-08-14T20:45:23.786Z,7.70
2022-08-14T20:47:58.519Z,7.77
2022-08-14T20:50:31.903Z,8.40
2022-08-14T20:53:05.985Z,7.87
2022-08-14T20:55:41.531Z,7.83
2022-08-14T20:58:43.488Z,7.03
2022-08-14T21:01:33.814Z,7.53
2022-08-14T21:04:12.022Z,7.30
2022-08-14T21:07:23.209Z,7.67
2022-08-14T21:10:04.566Z,7.37
2022-08-14T21:12:35.131Z,7.83
2022-08-14T21:15:10.006Z,7.80
2022-08-14T21:17:43.031Z,7.27
2022-08-14T21:20:25.784Z,7.67
2022-08-14T21:22:58.197Z,7.10
2022-08-14T21:25:31.857Z,8.50
2022-08-14T21:28:01.833Z,8.40
2022-08-14T21:30:51.566Z,7.87
2022-08-14T21:33:22.963Z,9.37
2022-08-14T21:35:54.905Z,8.00
2022-08-14T21:38:33.871Z,7.40
2022-08-14T21:41:41.907Z,8.73
2022-08-14T21:44:17.696Z,7.87
2022-08-14T21:46:50.357Z,8.03
2022-08-14T21:49:22.601Z,7.47
2022-08-14T21:52:00.025Z,7.50
2022-08-14T21:54:49.325Z,8.00
2022-08-14T21:57:55.648Z,7.57
2022-08-14T22:00:30.132Z,13.87
2022-08-14T22:02:59.083Z,7.57
2022-08-14T22:05:29.728Z,8.17
2022-08-14T22:07:59.142Z,7.87
2022-08-14T22:10:32.518Z,8.00
2022-08-14T22:13:01.818Z,7.70
2022-08-14T22:15:31.399Z,9.00
2022-08-14T22:18:02.118Z,12.27
2022-08-14T22:20:33.314Z,8.63
2022-08-14T22:23:04.687Z,9.23
2022-08-14T22:25:41.155Z,8.57
2022-08-14T22:28:14.909Z,7.60
2022-08-14T22:30:45.141Z,8.50
2022-08-14T22:33:15.178Z,8.60
2022-08-14T22:35:46.599Z,8.60
2022-08-14T22:38:35.741Z,8.83
2022-08-14T22:41:25.294Z,9.47
2022-08-14T22:43:59.234Z,10.63
2022-08-14T22:46:27.977Z,8.70
2022-08-14T22:48:57.554Z,8.57
2022-08-14T22:51:28.296Z,8.87
2022-08-14T22:53:58.276Z,9.13
2022-08-14T22:56:30.459Z,9.37
2022-08-14T22:59:00.262Z,9.50
2022-08-14T23:01:55.206Z,9.10
2022-08-14T23:04:35.229Z,12.30
2022-08-14T23:07:22.338Z,9.20
2022-08-14T23:09:57.717Z,10.00
2022-08-14T23:12:54.699Z,9.37
2022-08-14T23:15:30.185Z,7.93
2022-08-14T23:17:59.289Z,8.47
2022-08-14T23:20:29.322Z,8.97
2022-08-14T23:22:59.724Z,10.70
2022-08-14T23:25:56.973Z,9.70
2022-08-14T23:28:34.820Z,9.30
2022-08-14T23:31:12.560Z,8.73
2022-08-14T23:33:51.910Z,9.33
2022-08-14T23:36:31.983Z,9.33
2022-08-14T23:39:12.380Z,8.50
2022-08-14T23:41:52.758Z,9.70
2022-08-14T23:44:24.124Z,9.87
2022-08-14T23:46:56.851Z,10.93
2022-08-14T23:49:49.681Z,10.70
2022-08-14T23:52:50.248Z,9.23
2022-08-14T23:55:11.214Z,10.33
2022-08-14T23:57:43.896Z,9.87
